createdAt,value
2018-10-12T00:00:28.814Z,13.80
2018-10-12T00:02:57.024Z,12.37
2018-10-12T00:05:25.246Z,12.23
2018-10-12T00:07:54.043Z,12.13
2018-10-12T00:10:22.280Z,16.32
2018-10-12T00:12:50.492Z,14.70
2018-10-12T00:15:18.700Z,12.57
2018-10-12T00:17:46.923Z,13.20
2018-10-12T00:20:15.140Z,14.27
2018-10-12T00:22:43.351Z,13.80
2018-10-12T00:25:11.555Z,12.75
2018-10-12T00:27:39.774Z,12.40
2018-10-12T00:30:07.984Z,12.15
2018-10-12T00:32:36.204Z,14.27
2018-10-12T00:35:04.467Z,12.53
2018-10-12T00:37:32.689Z,16.23
2018-10-12T00:40:00.899Z,16.33
2018-10-12T00:42:29.143Z,15.47
2018-10-12T00:44:57.582Z,13.80
2018-10-12T00:47:25.906Z,14.23
2018-10-12T00:49:54.161Z,12.93
2018-10-12T00:52:22.336Z,11.73
2018-10-12T00:54:50.542Z,14.60
2018-10-12T00:57:18.758Z,13.33
2018-10-12T00:59:46.983Z,14.33
2018-10-12T01:02:15.207Z,11.63
2018-10-12T01:04:43.419Z,14.13
2018-10-12T01:07:11.641Z,14.77
2018-10-12T01:09:39.942Z,12.07
2018-10-12T01:12:22.194Z,12.53
2018-10-12T01:14:50.547Z,13.98
2018-10-12T01:17:18.760Z,12.78
2018-10-12T01:19:46.992Z,14.90
2018-10-12T01:22:15.250Z,13.93
2018-10-12T01:24:43.467Z,13.18
2018-10-12T01:27:11.916Z,15.35
2018-10-12T01:29:40.122Z,14.40
2018-10-12T01:32:08.541Z,14.70
2018-10-12T01:34:37.000Z,15.80
2018-10-12T01:37:05.215Z,15.50
2018-10-12T01:39:33.644Z,14.28
2018-10-12T01:42:01.875Z,12.33
2018-10-12T01:44:30.076Z,13.43
2018-10-12T01:46:58.274Z,14.28
2018-10-12T01:49:26.466Z,13.75
2018-10-12T01:51:54.672Z,13.80
2018-10-12T01:54:22.868Z,11.90
2018-10-12T01:56:51.092Z,15.03
2018-10-12T01:59:19.502Z,11.37
2018-10-12T02:01:47.699Z,18.77
2018-10-12T02:04:15.890Z,12.83
2018-10-12T02:06:44.088Z,11.85
2018-10-12T02:09:12.304Z,15.43
2018-10-12T02:11:40.487Z,12.20
2018-10-12T02:14:08.924Z,14.63
2018-10-12T02:16:37.128Z,13.00
2018-10-12T02:19:05.463Z,10.17
2018-10-12T02:21:33.650Z,13.07
2018-10-12T02:24:02.439Z,13.37
2018-10-12T02:26:30.845Z,12.75
2018-10-12T02:28:59.684Z,12.47
2018-10-12T02:31:27.873Z,13.10
2018-10-12T02:33:56.072Z,13.45
2018-10-12T02:36:24.263Z,14.37
2018-10-12T02:38:52.477Z,12.97
2018-10-12T02:41:20.659Z,15.28
2018-10-12T02:43:49.310Z,14.78
2018-10-12T02:46:17.556Z,13.90
2018-10-12T02:48:45.783Z,16.07
2018-10-12T02:51:13.994Z,14.80
2018-10-12T02:53:42.211Z,14.63
2018-10-12T02:56:14.897Z,18.20
2018-10-12T02:58:43.348Z,15.47
2018-10-12T03:01:11.554Z,16.00
2018-10-12T03:03:40.002Z,15.37
2018-10-12T03:06:08.247Z,14.80
2018-10-12T03:08:36.563Z,14.87
2018-10-12T03:11:04.791Z,14.97
2018-10-12T03:13:33.007Z,15.80
2018-10-12T03:16:01.228Z,19.10
2018-10-12T03:18:29.457Z,13.13
2018-10-12T03:20:58.726Z,15.17
2018-10-12T03:23:27.716Z,14.73
2018-10-12T03:25:55.930Z,13.57
2018-10-12T03:28:25.999Z,14.50
2018-10-12T03:30:54.285Z,14.10
2018-10-12T03:33:22.590Z,15.70
2018-10-12T03:35:50.882Z,16.50
2018-10-12T03:38:19.091Z,13.45
2018-10-12T03:40:47.318Z,14.80
2018-10-12T03:43:15.544Z,18.10
2018-10-12T03:45:44.250Z,13.93
2018-10-12T03:48:12.494Z,14.17
2018-10-12T03:50:40.720Z,14.57
2018-10-12T03:53:09.679Z,13.63
2018-10-12T03:55:37.916Z,14.53
2018-10-12T03:58:06.175Z,14.70
2018-10-12T04:00:34.384Z,14.57
2018-10-12T04:03:02.605Z,14.67
2018-10-12T04:05:30.817Z,16.57
2018-10-12T04:07:59.028Z,16.47
2018-10-12T04:10:27.479Z,14.40
2018-10-12T04:12:56.017Z,21.27
2018-10-12T04:15:24.416Z,15.13
2018-10-12T04:17:52.621Z,19.30
2018-10-12T04:20:20.834Z,15.33
2018-10-12T04:22:49.053Z,14.53
2018-10-12T04:25:17.275Z,15.00
2018-10-12T04:27:45.960Z,14.97
2018-10-12T04:30:14.404Z,15.20
2018-10-12T04:32:42.838Z,22.50
2018-10-12T04:35:11.062Z,17.80
2018-10-12T04:37:39.308Z,15.17
2018-10-12T04:41:18.823Z,16.80
2018-10-12T04:43:48.544Z,16.30
2018-10-12T04:46:19.843Z,15.30
2018-10-12T04:48:49.263Z,14.83
2018-10-12T04:51:26.984Z,14.93
2018-10-12T04:53:55.288Z,16.10
2018-10-12T04:56:23.426Z,16.90
2018-10-12T04:58:51.640Z,19.20
2018-10-12T05:01:19.854Z,17.67
2018-10-12T05:03:48.080Z,17.87
2018-10-12T05:06:16.307Z,14.10
2018-10-12T05:08:44.544Z,15.57
2018-10-12T05:11:12.783Z,23.80
2018-10-12T05:13:41.031Z,15.70
2018-10-12T05:16:09.242Z,22.30
2018-10-12T05:18:37.703Z,16.23
2018-10-12T05:21:05.999Z,16.97
2018-10-12T05:23:34.199Z,19.23
2018-10-12T05:26:02.452Z,15.60
2018-10-12T05:28:32.529Z,18.07
2018-10-12T05:31:00.813Z,17.83
2018-10-12T05:33:29.002Z,19.10
2018-10-12T05:35:57.279Z,16.50
2018-10-12T05:38:26.828Z,18.80
2018-10-12T05:40:55.091Z,20.67
2018-10-12T05:43:23.435Z,19.70
2018-10-12T05:45:51.550Z,19.67
2018-10-12T05:48:31.025Z,19.77
2018-10-12T05:51:00.613Z,20.33
2018-10-12T05:53:29.392Z,22.20
2018-10-12T05:55:58.468Z,23.93
2018-10-12T05:58:26.716Z,21.20
2018-10-12T06:00:54.977Z,22.83
2018-10-12T06:03:23.184Z,19.47
2018-10-12T06:05:51.394Z,20.27
2018-10-12T06:08:19.598Z,21.67
2018-10-12T06:10:48.038Z,21.90
2018-10-12T06:13:16.251Z,20.63
2018-10-12T06:15:44.776Z,19.80
2018-10-12T06:18:13.493Z,23.23
2018-10-12T06:20:41.700Z,21.23
2018-10-12T06:23:09.923Z,20.80
2018-10-12T06:25:38.136Z,16.67
2018-10-12T06:28:06.383Z,21.10
2018-10-12T06:30:34.587Z,21.27
2018-10-12T06:33:02.947Z,22.17
2018-10-12T06:35:31.062Z,21.67
2018-10-12T06:37:59.987Z,24.60
2018-10-12T06:40:28.673Z,24.83
2018-10-12T06:42:56.887Z,22.17
2018-10-12T06:45:25.104Z,28.40
2018-10-12T06:47:53.309Z,25.57
2018-10-12T06:50:21.508Z,22.67
2018-10-12T06:52:50.148Z,23.37
2018-10-12T06:55:18.322Z,28.33
2018-10-12T06:57:46.546Z,30.07
2018-10-12T07:00:14.939Z,23.53
2018-10-12T07:02:43.165Z,23.57
2018-10-12T07:05:11.611Z,21.77
2018-10-12T07:07:39.810Z,21.83
2018-10-12T07:10:08.039Z,19.87
2018-10-12T07:12:36.244Z,21.57
2018-10-12T07:15:04.918Z,20.47
2018-10-12T07:17:33.106Z,17.47
2018-10-12T07:20:01.528Z,17.50
2018-10-12T07:22:29.715Z,17.10
2018-10-12T07:24:57.916Z,19.37
2018-10-12T07:27:26.190Z,18.00
2018-10-12T07:29:54.398Z,16.05
2018-10-12T07:32:22.603Z,19.13
2018-10-12T07:34:50.818Z,17.13
2018-10-12T07:37:19.114Z,20.60
2018-10-12T07:39:47.247Z,17.25
2018-10-12T07:42:15.479Z,16.82
2018-10-12T07:44:43.663Z,16.45
2018-10-12T07:47:11.916Z,23.55
2018-10-12T07:49:40.318Z,19.23
2018-10-12T07:52:08.732Z,17.55
2018-10-12T07:54:37.163Z,15.13
2018-10-12T07:57:12.381Z,16.75
2018-10-12T07:59:41.891Z,16.93
2018-10-12T08:02:11.182Z,23.12
2018-10-12T08:04:41.003Z,16.35
2018-10-12T08:07:09.782Z,15.15
2018-10-12T08:09:38.433Z,13.58
2018-10-12T08:12:06.763Z,14.13
2018-10-12T08:14:34.963Z,13.38
2018-10-12T08:17:03.168Z,18.23
2018-10-12T08:19:31.683Z,12.55
2018-10-12T08:21:59.876Z,14.07
2018-10-12T08:24:28.082Z,13.00
2018-10-12T08:26:56.323Z,17.35
2018-10-12T08:29:25.902Z,14.47
2018-10-12T08:31:54.348Z,15.30
2018-10-12T08:34:22.535Z,15.30
2018-10-12T08:36:50.962Z,14.18
2018-10-12T08:39:19.185Z,15.68
2018-10-12T08:41:47.407Z,14.30
2018-10-12T08:44:15.753Z,17.62
2018-10-12T08:46:43.964Z,16.00
2018-10-12T08:49:12.183Z,15.75
2018-10-12T08:51:40.382Z,15.30
2018-10-12T08:54:09.180Z,14.33
2018-10-12T08:56:38.480Z,14.07
2018-10-12T08:59:06.783Z,14.50
2018-10-12T09:01:34.987Z,14.87
2018-10-12T09:04:03.223Z,11.95
2018-10-12T09:06:32.228Z,15.05
2018-10-12T09:09:02.220Z,12.88
2018-10-12T09:11:30.487Z,12.23
2018-10-12T09:13:58.691Z,11.65
2018-10-12T09:16:27.019Z,13.53
2018-10-12T09:18:55.126Z,12.25
2018-10-12T09:21:23.352Z,14.65
2018-10-12T09:23:51.566Z,13.35
2018-10-12T09:26:19.801Z,13.95
2018-10-12T09:28:48.012Z,15.28
2018-10-12T09:31:16.239Z,15.55
2018-10-12T09:33:44.504Z,14.73
2018-10-12T09:36:12.663Z,14.13
2018-10-12T09:38:40.861Z,13.30
2018-10-12T09:41:09.093Z,14.20
2018-10-12T09:43:37.308Z,15.28
2018-10-12T09:46:05.578Z,14.38
2018-10-12T09:48:33.794Z,12.93
2018-10-12T09:51:02.235Z,14.18
2018-10-12T09:53:32.014Z,13.43
2018-10-12T09:56:00.289Z,13.55
2018-10-12T09:58:28.677Z,13.62
2018-10-12T10:01:02.504Z,16.35
2018-10-12T10:04:35.743Z,12.90
2018-10-12T10:07:04.626Z,12.58
2018-10-12T10:09:33.081Z,13.85
2018-10-12T10:12:01.300Z,13.00
2018-10-12T10:14:29.882Z,14.68
2018-10-12T10:16:58.094Z,14.40
2018-10-12T10:19:26.439Z,15.55
2018-10-12T10:21:54.595Z,13.28
2018-10-12T10:24:22.806Z,13.22
2018-10-12T10:26:51.037Z,17.00
2018-10-12T10:29:19.289Z,13.80
2018-10-12T10:31:47.454Z,14.98
2018-10-12T10:34:15.884Z,13.70
2018-10-12T10:36:44.098Z,17.77
2018-10-12T10:39:13.193Z,14.50
2018-10-12T10:41:42.388Z,12.95
2018-10-12T10:44:10.743Z,14.65
2018-10-12T10:46:38.940Z,13.58
2018-10-12T10:49:07.156Z,13.78
2018-10-12T10:51:35.363Z,14.03
2018-10-12T10:54:03.543Z,13.35
2018-10-12T10:56:31.758Z,15.60
2018-10-12T10:58:59.959Z,14.07
2018-10-12T11:01:28.393Z,12.70
2018-10-12T11:03:56.588Z,11.97
2018-10-12T11:06:25.201Z,18.15
2018-10-12T11:08:53.330Z,13.58
2018-10-12T11:11:21.738Z,13.38
2018-10-12T11:13:49.940Z,13.43
2018-10-12T11:16:18.126Z,13.65
2018-10-12T11:18:46.554Z,14.47
2018-10-12T11:21:14.737Z,13.98
2018-10-12T11:23:42.944Z,13.28
2018-10-12T11:26:11.176Z,17.30
2018-10-12T11:28:39.342Z,12.40
2018-10-12T11:31:08.117Z,14.50
2018-10-12T11:33:36.310Z,12.58
2018-10-12T11:36:04.511Z,17.95
2018-10-12T11:38:32.819Z,13.00
2018-10-12T11:41:00.899Z,13.98
2018-10-12T11:43:32.913Z,14.73
2018-10-12T11:46:01.739Z,15.95
2018-10-12T11:48:30.247Z,13.43
2018-10-12T11:50:59.064Z,13.78
2018-10-12T11:53:27.278Z,12.60
2018-10-12T11:55:55.920Z,13.15
2018-10-12T11:58:24.506Z,13.18
2018-10-12T12:00:52.979Z,14.15
2018-10-12T12:03:21.324Z,15.55
2018-10-12T12:05:49.764Z,13.03
2018-10-12T12:08:17.978Z,13.13
2018-10-12T12:10:46.426Z,13.35
2018-10-12T12:13:14.651Z,12.90
2018-10-12T12:15:42.872Z,16.10
2018-10-12T12:18:11.071Z,11.48
2018-10-12T12:20:39.325Z,11.45
2018-10-12T12:23:07.532Z,10.80
2018-10-12T12:25:35.751Z,11.10
2018-10-12T12:28:03.967Z,12.00
2018-10-12T12:30:32.191Z,10.88
2018-10-12T12:33:00.446Z,11.12
2018-10-12T12:35:28.937Z,10.60
2018-10-12T12:37:56.880Z,13.15
2018-10-12T12:40:25.096Z,14.90
2018-10-12T12:42:53.528Z,11.57
2018-10-12T12:45:21.720Z,11.25
2018-10-12T12:47:50.004Z,11.15
2018-10-12T12:50:18.103Z,13.45
2018-10-12T12:52:46.290Z,10.40
2018-10-12T12:55:14.474Z,9.68
2018-10-12T12:57:42.675Z,8.63
2018-10-12T13:00:10.883Z,12.43
2018-10-12T13:02:39.201Z,10.05
2018-10-12T13:05:07.408Z,11.05
2018-10-12T13:07:35.588Z,9.80
2018-10-12T13:10:03.783Z,11.57
2018-10-12T13:12:31.969Z,10.82
2018-10-12T13:15:00.164Z,11.03
2018-10-12T13:17:28.347Z,11.05
2018-10-12T13:19:56.540Z,9.83
2018-10-12T13:22:24.752Z,12.10
2018-10-12T13:24:52.954Z,11.55
2018-10-12T13:27:21.139Z,9.93
2018-10-12T13:29:49.323Z,10.72
2018-10-12T13:32:17.519Z,13.20
2018-10-12T13:34:45.720Z,8.73
2018-10-12T13:37:13.915Z,9.83
2018-10-12T13:39:42.365Z,8.58
2018-10-12T13:42:10.531Z,7.80
2018-10-12T13:44:38.755Z,8.03
2018-10-12T13:47:06.975Z,9.13
2018-10-12T13:49:35.193Z,9.00
2018-10-12T13:52:03.640Z,9.18
2018-10-12T13:54:32.084Z,9.43
2018-10-12T13:57:01.526Z,11.60
2018-10-12T13:59:30.828Z,12.80
2018-10-12T14:01:59.502Z,9.95
2018-10-12T14:04:28.606Z,9.53
2018-10-12T14:06:56.894Z,11.90
2018-10-12T14:09:25.551Z,11.65
2018-10-12T14:11:53.772Z,13.85
2018-10-12T14:14:21.971Z,9.83
2018-10-12T14:16:50.439Z,11.93
2018-10-12T14:19:19.176Z,9.85
2018-10-12T14:21:47.096Z,10.08
2018-10-12T14:24:15.530Z,10.95
2018-10-12T14:26:44.043Z,11.08
2018-10-12T14:29:12.183Z,11.03
2018-10-12T14:31:42.610Z,10.68
2018-10-12T14:34:10.856Z,11.20
2018-10-12T14:36:39.284Z,11.68
2018-10-12T14:39:09.063Z,10.82
2018-10-12T14:41:37.416Z,10.20
2018-10-12T14:44:05.821Z,10.30
2018-10-12T14:46:33.932Z,12.55
2018-10-12T14:49:02.144Z,12.63
2018-10-12T14:51:31.043Z,9.35
2018-10-12T14:53:59.579Z,12.53
2018-10-12T14:56:27.798Z,14.45
2018-10-12T14:58:56.409Z,16.57
2018-10-12T15:01:24.615Z,15.25
2018-10-12T15:03:52.838Z,13.93
2018-10-12T15:06:21.055Z,10.93
2018-10-12T15:08:49.278Z,13.08
2018-10-12T15:11:18.072Z,12.50
2018-10-12T15:13:46.308Z,11.05
2018-10-12T15:16:14.519Z,10.55
2018-10-12T15:18:42.958Z,21.12
2018-10-12T15:21:11.273Z,23.50
2018-10-12T15:23:39.388Z,12.18
2018-10-12T15:26:08.000Z,11.22
2018-10-12T15:28:36.235Z,11.43
2018-10-12T15:31:04.469Z,10.95
2018-10-12T15:33:32.919Z,13.88
2018-10-12T15:36:01.114Z,8.88
2018-10-12T15:38:29.365Z,12.50
2018-10-12T15:40:57.629Z,9.63
2018-10-12T15:43:26.032Z,8.68
2018-10-12T15:45:54.222Z,10.35
2018-10-12T15:48:22.655Z,9.30
2018-10-12T15:50:50.846Z,13.10
2018-10-12T15:53:19.123Z,10.50
2018-10-12T15:55:47.312Z,10.20
2018-10-12T15:58:15.730Z,11.53
2018-10-12T16:00:44.159Z,13.10
2018-10-12T16:03:12.568Z,11.50
2018-10-12T16:05:40.765Z,12.68
2018-10-12T16:08:09.584Z,12.63
2018-10-12T16:10:37.999Z,9.93
2018-10-12T16:13:06.728Z,15.20
2018-10-12T16:15:34.949Z,12.50
2018-10-12T16:18:03.613Z,10.45
2018-10-12T16:20:31.826Z,11.28
2018-10-12T16:23:00.045Z,9.38
2018-10-12T16:26:17.348Z,9.48
2018-10-12T16:28:45.540Z,10.32
2018-10-12T16:31:13.955Z,12.18
2018-10-12T16:33:42.167Z,12.98
2018-10-12T16:36:10.468Z,13.20
2018-10-12T16:38:38.623Z,17.77
2018-10-12T16:41:06.837Z,16.40
2018-10-12T16:43:35.044Z,11.43
2018-10-12T16:46:03.289Z,15.60
2018-10-12T16:48:31.487Z,12.10
2018-10-12T16:50:59.692Z,14.25
2018-10-12T16:53:27.896Z,16.97
2018-10-12T16:55:56.304Z,13.20
2018-10-12T16:58:24.574Z,12.23
2018-10-12T17:00:52.696Z,17.25
2018-10-12T17:03:20.890Z,13.25
2018-10-12T17:05:49.085Z,15.68
2018-10-12T17:08:17.511Z,13.22
2018-10-12T17:10:45.937Z,16.80
2018-10-12T17:13:14.163Z,17.37
2018-10-12T17:15:42.336Z,17.37
2018-10-12T17:18:10.558Z,18.00
2018-10-12T17:20:38.791Z,16.52
2018-10-12T17:23:07.095Z,14.55
2018-10-12T17:25:35.330Z,13.30
2018-10-12T17:28:03.892Z,14.13
2018-10-12T17:30:32.177Z,15.23
2018-10-12T17:33:00.348Z,12.07
2018-10-12T17:35:28.823Z,15.00
2018-10-12T17:37:57.066Z,9.93
2018-10-12T17:40:25.299Z,12.88
2018-10-12T17:42:53.563Z,15.30
2018-10-12T17:45:21.765Z,14.05
2018-10-12T17:47:49.970Z,12.37
2018-10-12T17:50:18.179Z,14.15
2018-10-12T17:52:46.627Z,13.68
2018-10-12T17:55:14.872Z,15.32
2018-10-12T17:57:43.089Z,14.85
2018-10-12T18:00:11.434Z,11.50
2018-10-12T18:02:39.493Z,14.98
2018-10-12T18:05:08.086Z,14.98
2018-10-12T18:07:36.278Z,14.30
2018-10-12T18:10:05.247Z,16.50
2018-10-12T18:12:33.449Z,15.20
2018-10-12T18:15:01.679Z,19.60
2018-10-12T18:17:29.846Z,21.27
2018-10-12T18:19:58.034Z,19.35
2018-10-12T18:22:26.452Z,17.10
2018-10-12T18:24:54.652Z,15.03
2018-10-12T18:27:22.849Z,15.53
2018-10-12T18:29:51.057Z,13.98
2018-10-12T18:32:19.249Z,15.60
2018-10-12T18:34:47.471Z,16.35
2018-10-12T18:37:15.659Z,15.18
2018-10-12T18:39:44.092Z,15.93
2018-10-12T18:42:12.292Z,14.63
2018-10-12T18:44:40.517Z,19.48
2018-10-12T18:47:08.704Z,15.35
2018-10-12T18:49:36.988Z,12.20
2018-10-12T18:52:05.193Z,16.15
2018-10-12T18:54:33.427Z,15.90
2018-10-12T18:57:01.659Z,14.33
2018-10-12T18:59:29.907Z,15.20
2018-10-12T19:01:58.054Z,14.95
2018-10-12T19:04:26.295Z,17.57
2018-10-12T19:06:54.455Z,17.85
2018-10-12T19:09:22.651Z,14.87
2018-10-12T19:11:50.852Z,19.25
2018-10-12T19:14:19.042Z,19.80
2018-10-12T19:16:47.244Z,18.77
2018-10-12T19:19:15.440Z,17.30
2018-10-12T19:21:43.635Z,22.93
2018-10-12T19:24:12.006Z,15.13
2018-10-12T19:26:40.510Z,19.02
2018-10-12T19:29:08.710Z,16.10
2018-10-12T19:31:37.234Z,17.92
2018-10-12T19:34:05.332Z,20.50
2018-10-12T19:36:33.551Z,19.27
2018-10-12T19:39:01.759Z,19.70
2018-10-12T19:41:30.024Z,17.45
2018-10-12T19:43:58.218Z,21.70
2018-10-12T19:46:26.411Z,21.70
2018-10-12T19:48:54.636Z,18.37
2018-10-12T19:51:22.794Z,18.60
2018-10-12T19:53:50.975Z,19.00
2018-10-12T19:56:19.334Z,16.77
2018-10-12T19:58:47.531Z,16.07
2018-10-12T20:01:15.802Z,19.70
2018-10-12T20:03:44.004Z,23.13
2018-10-12T20:06:12.426Z,20.90
2018-10-12T20:08:40.739Z,20.63
2018-10-12T20:11:08.940Z,19.57
2018-10-12T20:13:37.187Z,20.72
2018-10-12T20:16:05.399Z,19.07
2018-10-12T20:18:33.806Z,18.62
2018-10-12T20:21:02.027Z,17.77
2018-10-12T20:23:30.212Z,19.40
2018-10-12T20:25:58.422Z,15.57
2018-10-12T20:28:26.631Z,19.03
2018-10-12T20:30:54.828Z,18.47
2018-10-12T20:33:23.019Z,17.33
2018-10-12T20:35:51.851Z,17.60
2018-10-12T20:38:20.030Z,16.97
2018-10-12T20:40:48.239Z,20.33
2018-10-12T20:43:16.470Z,18.07
2018-10-12T20:45:44.679Z,19.43
2018-10-12T20:48:12.908Z,18.40
2018-10-12T20:50:41.495Z,19.13
2018-10-12T20:53:09.600Z,19.57
2018-10-12T20:55:37.814Z,20.27
2018-10-12T20:58:10.264Z,18.30
2018-10-12T21:00:38.515Z,17.13
2018-10-12T21:03:06.990Z,18.00
2018-10-12T21:05:35.201Z,20.07
2018-10-12T21:08:03.444Z,17.53
2018-10-12T21:10:31.873Z,20.27
2018-10-12T21:13:00.089Z,19.97
2018-10-12T21:15:28.298Z,18.40
2018-10-12T21:17:56.605Z,17.43
2018-10-12T21:20:24.726Z,19.00
2018-10-12T21:22:52.953Z,21.03
2018-10-12T21:25:21.517Z,18.17
2018-10-12T21:27:49.692Z,20.33
2018-10-12T21:30:17.899Z,22.77
2018-10-12T21:32:46.118Z,20.63
2018-10-12T21:35:14.556Z,19.00
2018-10-12T21:37:42.775Z,20.43
2018-10-12T21:40:11.088Z,21.73
2018-10-12T21:42:39.279Z,23.67
2018-10-12T21:45:07.492Z,24.00
2018-10-12T21:47:35.703Z,23.17
2018-10-12T21:50:03.906Z,25.97
2018-10-12T21:52:32.341Z,24.67
2018-10-12T21:55:00.579Z,23.03
2018-10-12T21:57:28.776Z,22.00
2018-10-12T21:59:57.253Z,22.00
2018-10-12T22:02:25.404Z,19.57
2018-10-12T22:04:53.604Z,22.17
2018-10-12T22:07:21.828Z,19.93
2018-10-12T22:09:50.014Z,18.50
2018-10-12T22:12:18.224Z,19.87
2018-10-12T22:14:46.430Z,26.63
2018-10-12T22:17:14.642Z,20.63
2018-10-12T22:19:42.859Z,22.30
2018-10-12T22:22:11.087Z,23.10
2018-10-12T22:24:39.292Z,22.47
2018-10-12T22:27:07.491Z,20.07
2018-10-12T22:29:35.705Z,24.20
2018-10-12T22:32:04.239Z,21.40
2018-10-12T22:34:32.520Z,21.47
2018-10-12T22:37:00.714Z,25.10
2018-10-12T22:39:28.935Z,20.57
2018-10-12T22:41:57.137Z,21.97
2018-10-12T22:44:25.323Z,23.23
2018-10-12T22:46:53.720Z,20.27
2018-10-12T22:49:21.904Z,24.60
2018-10-12T22:51:50.100Z,22.30
2018-10-12T22:54:18.344Z,22.97
2018-10-12T22:56:46.518Z,24.23
2018-10-12T22:59:14.704Z,26.30
2018-10-12T23:01:42.879Z,21.73
2018-10-12T23:04:11.071Z,28.50
2018-10-12T23:06:39.266Z,23.20
2018-10-12T23:09:09.273Z,24.43
2018-10-12T23:11:37.523Z,22.63
2018-10-12T23:14:06.500Z,24.00
2018-10-12T23:16:34.764Z,23.53
2018-10-12T23:19:03.008Z,24.23
2018-10-12T23:21:31.248Z,25.40
2018-10-12T23:23:59.568Z,23.97
2018-10-12T23:26:27.759Z,25.30
2018-10-12T23:28:55.973Z,26.57
2018-10-12T23:31:24.180Z,26.53
2018-10-12T23:34:00.280Z,21.80
2018-10-12T23:36:28.852Z,24.17
2018-10-12T23:38:57.540Z,27.27
2018-10-12T23:41:26.116Z,26.23
2018-10-12T23:43:54.388Z,26.00
2018-10-12T23:46:22.600Z,21.83
2018-10-12T23:48:50.817Z,24.20
2018-10-12T23:51:19.392Z,25.87
2018-10-12T23:53:47.587Z,27.23
2018-10-12T23:56:15.856Z,26.93
2018-10-12T23:58:44.451Z,29.93
